Panola County Airport


Codes: KPMU/
Name: Panola County Airport
City: Batesville
Country: United States
Elevation: 221 ft.

Photos at Panola County Airport


   Photos courtesy of SpottingLog. You can add your own sightings and photos by signing up for a free trial today.



No photos found.

Weather at Panola County Airport


Time (UTC)DescriptionTempratureWindCloud coverageVisibilityPressureHumidity
25-Jun-2024 12:00Broken Clouds24°C4 mph, SE70%10000m1014hPa92%
25-Jun-2024 15:00Broken Clouds26°C4 mph, SW60%10000m1014hPa81%
25-Jun-2024 18:00Scattered Clouds32°C7 mph, SW38%10000m1014hPa60%
25-Jun-2024 21:00Broken Clouds37°C7 mph, SW64%10000m1012hPa37%
26-Jun-2024 00:00Broken Clouds34°C7 mph, S75%10000m1011hPa52%
26-Jun-2024 03:00Light Rain26°C4 mph, S90%10000m1012hPa76%
26-Jun-2024 06:00Light Rain24°C4 mph, NW95%10000m1013hPa90%
26-Jun-2024 09:00Overcast Clouds23°C7 mph, SW100%10000m1012hPa90%
26-Jun-2024 12:00Light Rain25°C4 mph, SW100%10000m1012hPa88%
26-Jun-2024 15:00Light Rain30°C7 mph, SW75%10000m1012hPa65%
26-Jun-2024 18:00Moderate Rain31°C7 mph, SW74%2374m1012hPa68%
26-Jun-2024 21:00Moderate Rain27°C13 mph, SE98%10000m1009hPa80%
27-Jun-2024 00:00Moderate Rain24°C4 mph, SW94%10000m1010hPa91%
27-Jun-2024 03:00Light Rain22°C4 mph, S100%10000m1009hPa96%
27-Jun-2024 06:00Overcast Clouds21°C0 mph, SE85%10000m1009hPa95%
27-Jun-2024 09:00Clear Sky20°C2 mph, N4%10000m1011hPa97%
27-Jun-2024 12:00Clear Sky21°C2 mph, NE6%10000m1011hPa94%
27-Jun-2024 15:00Clear Sky26°C4 mph, NE3%10000m1012hPa69%
27-Jun-2024 18:00Few Clouds31°C4 mph, N24%10000m1011hPa54%
27-Jun-2024 21:00Overcast Clouds32°C4 mph, NW90%10000m1009hPa50%
28-Jun-2024 00:00Light Rain27°C7 mph, NE90%10000m1010hPa75%
28-Jun-2024 03:00Broken Clouds24°C7 mph, NE81%10000m1010hPa88%
28-Jun-2024 06:00Overcast Clouds23°C7 mph, E87%10000m1009hPa90%
28-Jun-2024 09:00Broken Clouds22°C2 mph, SE64%10000m1010hPa92%
28-Jun-2024 12:00Broken Clouds23°C4 mph, SE65%10000m1011hPa87%
28-Jun-2024 15:00Few Clouds30°C7 mph, S22%10000m1011hPa59%
28-Jun-2024 18:00Broken Clouds33°C9 mph, SW56%10000m1011hPa50%
28-Jun-2024 21:00Overcast Clouds32°C11 mph, SW100%10000m1010hPa56%
29-Jun-2024 00:00Overcast Clouds30°C4 mph, SW100%10000m1011hPa70%
29-Jun-2024 03:00Broken Clouds27°C4 mph, S71%10000m1011hPa73%
29-Jun-2024 06:00Broken Clouds26°C7 mph, S84%10000m1013hPa80%
29-Jun-2024 09:00Broken Clouds25°C7 mph, S64%10000m1013hPa84%
29-Jun-2024 12:00Broken Clouds26°C4 mph, SW74%10000m1016hPa84%
29-Jun-2024 15:00Overcast Clouds30°C9 mph, SW94%10000m1017hPa67%
29-Jun-2024 18:00Overcast Clouds35°C7 mph, W88%10000m1017hPa50%
29-Jun-2024 21:00Light Rain35°C9 mph, SW78%10000m1016hPa48%
30-Jun-2024 00:00Overcast Clouds31°C4 mph, W92%10000m1016hPa67%
30-Jun-2024 03:00Overcast Clouds29°C2 mph, W100%10000m1017hPa71%
30-Jun-2024 06:00Light Rain25°C4 mph, NE93%10000m1018hPa93%
30-Jun-2024 09:00Scattered Clouds24°C2 mph, SE29%10000m1017hPa93%